Terminal Aerodrome Forecast
Issued by NWS Raleigh/Durham, NC

Home | Current Version | Previous Version | Text Only | Print | Product List | Glossary On
Versions: 1 2 3 4 5 6 7 8 9 10 11 12 13 14 15 16 17 18
000
FTUS42 KRAH 271126
TAFGSO
TAF
KGSO 271126Z 2712/2812 VRB05KT P6SM FEW120 SCT250
     FM271800 24007KT P6SM SCT060 PROB30 2721/2803 VRB15G30KT 2SM
      TSRA BKN025CB=

USA.gov is the U.S. government's official web portal to all federal, state and local government web resources and services.